MUCM Airport Information

Runway Information
Runway 07 Length 9842 ft width 148 ft
Elevation 400 ft Threshold 0 ft Heading 68
Runway 25 Length 9842 ft Width 148 ft
Elevation 400 ft Threshold 0 ft Heading 248
Airport Frequencies
Type A/G Name CAMAGUEY R Frequency 126.9 MHZ
Type A/G Name CAMAGUEY R Frequency 1132.1 MHZ
Type APP Name CAMAGUEY A Frequency 121.3 MHZ
Type TWR Name AGRAMONTE Frequency 118.5 MHZ
Airport Navaids
Type VOR-DME Name Camaguey Frequency 114100 KHZ
Type NDB Name Camaguey Frequency 370 KHZ
Airport Weather Information & NOTAM
ADDS - METARS form results

(0739 UTC 01 June 2020)
Data provider http://aviationweather.gov/metar/data/
 
METAR text: MUCM 010705Z AUTO 01004KT 24/24 Q1016
Conditions at: MUCM (CAMAGUEY/IGANCI , CU) observed 0705 UTC 01 June 2020
Temperature: 24.0°C (75°F)
Dewpoint: 24.0°C (75°F) [RH = 100%]
Pressure (altimeter): 30.00 inches Hg (1016.0 mb)
Winds: from the N (10 degrees) at 5 MPH (4 knots; 2.1 m/s)
Visibility: missing
Ceiling: unknown
Clouds: missing
Weather: no significant weather observed at this time